sensor_id;sensor_type;location;lat;lon;timestamp;temperature;humidity
8402;DHT22;4238;48.404;9.498;2023-09-19T04:02:49;14.90;99.90
8402;DHT22;4238;48.404;9.498;2023-09-19T04:05:17;14.90;99.90
8402;DHT22;4238;48.404;9.498;2023-09-19T04:07:44;14.90;99.90
8402;DHT22;4238;48.404;9.498;2023-09-19T04:10:11;14.90;99.90
8402;DHT22;4238;48.404;9.498;2023-09-19T04:12:40;14.90;99.90
8402;DHT22;4238;48.404;9.498;2023-09-19T04:15:07;14.80;99.90
8402;DHT22;4238;48.404;9.498;2023-09-19T04:17:38;14.80;99.90
8402;DHT22;4238;48.404;9.498;2023-09-19T04:20:08;14.80;99.90
8402;DHT22;4238;48.404;9.498;2023-09-19T04:22:37;14.80;99.90
8402;DHT22;4238;48.404;9.498;2023-09-19T04:25:05;14.80;99.90
8402;DHT22;4238;48.404;9.498;2023-09-19T04:27:32;14.80;99.90
8402;DHT22;4238;48.404;9.498;2023-09-19T04:29:59;14.70;99.90
8402;DHT22;4238;48.404;9.498;2023-09-19T04:32:28;14.70;99.90
8402;DHT22;4238;48.404;9.498;2023-09-19T04:34:57;14.70;99.90
8402;DHT22;4238;48.404;9.498;2023-09-19T04:37:29;14.70;99.90
8402;DHT22;4238;48.404;9.498;2023-09-19T04:39:55;14.70;99.90
8402;DHT22;4238;48.404;9.498;2023-09-19T04:42:22;14.70;99.90
8402;DHT22;4238;48.404;9.498;2023-09-19T04:44:50;14.70;99.90
8402;DHT22;4238;48.404;9.498;2023-09-19T04:47:19;14.70;99.90
8402;DHT22;4238;48.404;9.498;2023-09-19T04:49:46;14.70;99.90
8402;DHT22;4238;48.404;9.498;2023-09-19T04:52:13;14.70;99.90
8402;DHT22;4238;48.404;9.498;2023-09-19T04:54:42;14.60;99.90
8402;DHT22;4238;48.404;9.498;2023-09-19T04:57:10;14.50;99.90
8402;DHT22;4238;48.404;9.498;2023-09-19T04:59:38;14.50;99.90
8402;DHT22;4238;48.404;9.498;2023-09-19T05:02:06;14.60;99.90
8402;DHT22;4238;48.404;9.498;2023-09-19T05:04:34;14.50;99.90
8402;DHT22;4238;48.404;9.498;2023-09-19T05:07:01;14.50;99.90
8402;DHT22;4238;48.404;9.498;2023-09-19T05:09:29;14.50;99.90
8402;DHT22;4238;48.404;9.498;2023-09-19T05:11:57;14.40;99.90
8402;DHT22;4238;48.404;9.498;2023-09-19T05:14:24;14.50;99.90
8402;DHT22;4238;48.404;9.498;2023-09-19T05:16:50;14.50;99.90
8402;DHT22;4238;48.404;9.498;2023-09-19T05:19:17;14.50;99.90
8402;DHT22;4238;48.404;9.498;2023-09-19T05:21:44;14.50;99.90
8402;DHT22;4238;48.404;9.498;2023-09-19T05:24:12;14.50;99.90
8402;DHT22;4238;48.404;9.498;2023-09-19T05:26:40;14.60;99.90
8402;DHT22;4238;48.404;9.498;2023-09-19T05:29:08;14.60;99.90
8402;DHT22;4238;48.404;9.498;2023-09-19T05:31:35;14.50;99.90
8402;DHT22;4238;48.404;9.498;2023-09-19T05:34:06;14.60;99.90
8402;DHT22;4238;48.404;9.498;2023-09-19T05:36:33;14.60;99.90
8402;DHT22;4238;48.404;9.498;2023-09-19T05:39:00;14.60;99.90
8402;DHT22;4238;48.404;9.498;2023-09-19T05:41:27;14.50;99.90
8402;DHT22;4238;48.404;9.498;2023-09-19T05:43:54;14.50;99.90
8402;DHT22;4238;48.404;9.498;2023-09-19T05:46:22;14.50;99.90
8402;DHT22;4238;48.404;9.498;2023-09-19T05:48:49;14.60;99.90
8402;DHT22;4238;48.404;9.498;2023-09-19T05:51:16;14.60;99.90
8402;DHT22;4238;48.404;9.498;2023-09-19T05:53:48;14.50;99.90
8402;DHT22;4238;48.404;9.498;2023-09-19T05:56:15;14.60;99.90
8402;DHT22;4238;48.404;9.498;2023-09-19T05:58:44;14.70;99.90
8402;DHT22;4238;48.404;9.498;2023-09-19T06:01:11;14.70;99.90
8402;DHT22;4238;48.404;9.498;2023-09-19T06:03:40;14.80;99.90
8402;DHT22;4238;48.404;9.498;2023-09-19T06:06:07;14.70;99.90
8402;DHT22;4238;48.404;9.498;2023-09-19T06:08:34;14.80;99.90
8402;DHT22;4238;48.404;9.498;2023-09-19T06:11:01;14.80;99.90
8402;DHT22;4238;48.404;9.498;2023-09-19T06:13:28;15.00;99.90
8402;DHT22;4238;48.404;9.498;2023-09-19T06:15:55;15.00;99.90
8402;DHT22;4238;48.404;9.498;2023-09-19T06:18:24;15.10;99.90
8402;DHT22;4238;48.404;9.498;2023-09-19T06:20:53;15.20;99.90
8402;DHT22;4238;48.404;9.498;2023-09-19T06:23:21;15.20;99.90
8402;DHT22;4238;48.404;9.498;2023-09-19T06:25:48;15.20;99.90
8402;DHT22;4238;48.404;9.498;2023-09-19T06:28:15;15.10;99.90
8402;DHT22;4238;48.404;9.498;2023-09-19T06:30:45;15.30;99.90
8402;DHT22;4238;48.404;9.498;2023-09-19T06:33:13;15.20;99.90
8402;DHT22;4238;48.404;9.498;2023-09-19T06:35:41;15.30;99.90
8402;DHT22;4238;48.404;9.498;2023-09-19T06:38:11;15.40;99.90
8402;DHT22;4238;48.404;9.498;2023-09-19T06:40:38;15.60;99.90
8402;DHT22;4238;48.404;9.498;2023-09-19T06:43:10;15.70;99.90
8402;DHT22;4238;48.404;9.498;2023-09-19T06:45:37;15.80;99.90
8402;DHT22;4238;48.404;9.498;2023-09-19T06:48:05;15.70;99.90
8402;DHT22;4238;48.404;9.498;2023-09-19T06:50:32;15.70;99.90
8402;DHT22;4238;48.404;9.498;2023-09-19T06:53:00;15.70;99.90
8402;DHT22;4238;48.404;9.498;2023-09-19T06:55:29;15.70;99.90
8402;DHT22;4238;48.404;9.498;2023-09-19T06:57:56;15.60;99.90
8402;DHT22;4238;48.404;9.498;2023-09-19T07:00:24;15.70;99.90
8402;DHT22;4238;48.404;9.498;2023-09-19T07:02:58;15.70;99.90
8402;DHT22;4238;48.404;9.498;2023-09-19T07:05:27;15.70;99.90
8402;DHT22;4238;48.404;9.498;2023-09-19T07:07:54;15.70;99.90
8402;DHT22;4238;48.404;9.498;2023-09-19T07:10:22;15.70;99.90
8402;DHT22;4238;48.404;9.498;2023-09-19T07:12:56;15.70;99.90
8402;DHT22;4238;48.404;9.498;2023-09-19T07:15:24;15.80;99.90
8402;DHT22;4238;48.404;9.498;2023-09-19T07:17:51;15.80;99.90
8402;DHT22;4238;48.404;9.498;2023-09-19T07:20:19;15.90;99.90
8402;DHT22;4238;48.404;9.498;2023-09-19T07:22:46;16.00;99.90
8402;DHT22;4238;48.404;9.498;2023-09-19T07:25:13;16.10;99.90
8402;DHT22;4238;48.404;9.498;2023-09-19T07:27:40;16.30;99.90
8402;DHT22;4238;48.404;9.498;2023-09-19T07:30:10;16.30;99.90
8402;DHT22;4238;48.404;9.498;2023-09-19T07:32:37;16.40;99.90
8402;DHT22;4238;48.404;9.498;2023-09-19T07:35:06;16.40;99.90
8402;DHT22;4238;48.404;9.498;2023-09-19T07:37:33;16.40;99.90
8402;DHT22;4238;48.404;9.498;2023-09-19T07:40:01;16.40;99.90
8402;DHT22;4238;48.404;9.498;2023-09-19T07:42:32;16.50;99.90
8402;DHT22;4238;48.404;9.498;2023-09-19T07:45:00;16.50;98.70
8402;DHT22;4238;48.404;9.498;2023-09-19T07:47:29;16.60;98.90
8402;DHT22;4238;48.404;9.498;2023-09-19T07:49:58;16.70;97.70
8402;DHT22;4238;48.404;9.498;2023-09-19T07:52:25;17.00;94.80
8402;DHT22;4238;48.404;9.498;2023-09-19T07:54:53;17.00;85.80
8402;DHT22;4238;48.404;9.498;2023-09-19T07:57:20;17.00;90.70
8402;DHT22;4238;48.404;9.498;2023-09-19T07:59:46;16.90;80.90
8402;DHT22;4238;48.404;9.498;2023-09-19T08:02:13;16.80;81.60
8402;DHT22;4238;48.404;9.498;2023-09-19T08:04:44;16.70;84.90
8402;DHT22;4238;48.404;9.498;2023-09-19T08:07:11;16.60;87.50
8402;DHT22;4238;48.404;9.498;2023-09-19T08:09:39;16.50;87.20
8402;DHT22;4238;48.404;9.498;2023-09-19T08:12:06;16.50;93.00
8402;DHT22;4238;48.404;9.498;2023-09-19T08:14:33;16.40;90.20
8402;DHT22;4238;48.404;9.498;2023-09-19T08:17:00;16.40;94.70
8402;DHT22;4238;48.404;9.498;2023-09-19T08:19:27;16.40;99.90
8402;DHT22;4238;48.404;9.498;2023-09-19T08:21:57;16.50;96.50
8402;DHT22;4238;48.404;9.498;2023-09-19T08:24:24;16.50;92.30
8402;DHT22;4238;48.404;9.498;2023-09-19T08:26:53;16.60;94.70
8402;DHT22;4238;48.404;9.498;2023-09-19T08:29:21;16.60;93.90
8402;DHT22;4238;48.404;9.498;2023-09-19T08:31:53;16.80;95.50
8402;DHT22;4238;48.404;9.498;2023-09-19T08:34:20;16.90;92.00
8402;DHT22;4238;48.404;9.498;2023-09-19T08:36:47;16.90;85.00
8402;DHT22;4238;48.404;9.498;2023-09-19T08:39:16;17.00;74.00
8402;DHT22;4238;48.404;9.498;2023-09-19T08:41:44;17.00;74.60
8402;DHT22;4238;48.404;9.498;2023-09-19T08:44:10;17.00;76.50
8402;DHT22;4238;48.404;9.498;2023-09-19T08:46:41;17.10;70.80
8402;DHT22;4238;48.404;9.498;2023-09-19T08:49:13;17.20;78.30
8402;DHT22;4238;48.404;9.498;2023-09-19T08:51:45;17.30;63.60
8402;DHT22;4238;48.404;9.498;2023-09-19T08:54:21;17.30;43.60
8402;DHT22;4238;48.404;9.498;2023-09-19T08:56:50;17.20;52.50
8402;DHT22;4238;48.404;9.498;2023-09-19T08:59:21;17.20;38.60
8402;DHT22;4238;48.404;9.498;2023-09-19T09:01:51;17.10;28.20
8402;DHT22;4238;48.404;9.498;2023-09-19T09:04:19;16.90;1.00
8402;DHT22;4238;48.404;9.498;2023-09-19T09:06:46;16.90;1.00
8402;DHT22;4238;48.404;9.498;2023-09-19T09:09:20;16.80;1.00
8402;DHT22;4238;48.404;9.498;2023-09-19T09:11:48;16.70;7.70
8402;DHT22;4238;48.404;9.498;2023-09-19T09:14:15;16.70;13.20
8402;DHT22;4238;48.404;9.498;2023-09-19T09:16:43;16.80;12.90
8402;DHT22;4238;48.404;9.498;2023-09-19T09:19:10;16.80;2.40
8402;DHT22;4238;48.404;9.498;2023-09-19T09:21:38;16.90;1.00
8402;DHT22;4238;48.404;9.498;2023-09-19T09:24:28;17.00;1.00
8402;DHT22;4238;48.404;9.498;2023-09-19T09:26:55;17.40;1.00
8402;DHT22;4238;48.404;9.498;2023-09-19T09:29:43;17.60;1.00
8402;DHT22;4238;48.404;9.498;2023-09-19T09:32:19;17.90;1.00
8402;DHT22;4238;48.404;9.498;2023-09-19T09:34:47;18.60;1.00
8402;DHT22;4238;48.404;9.498;2023-09-19T09:37:15;19.20;1.00
8402;DHT22;4238;48.404;9.498;2023-09-19T09:39:51;19.60;1.00
8402;DHT22;4238;48.404;9.498;2023-09-19T09:42:30;19.70;1.00
8402;DHT22;4238;48.404;9.498;2023-09-19T09:45:14;19.50;99.90
8402;DHT22;4238;48.404;9.498;2023-09-19T09:47:42;19.20;99.90
8402;DHT22;4238;48.404;9.498;2023-09-19T09:50:26;19.10;1.00
8402;DHT22;4238;48.404;9.498;2023-09-19T09:53:05;18.90;1.00
8402;DHT22;4238;48.404;9.498;2023-09-19T09:55:57;18.80;1.00
8402;DHT22;4238;48.404;9.498;2023-09-19T09:58:25;19.10;1.00
8402;DHT22;4238;48.404;9.498;2023-09-19T10:00:55;19.50;1.00
8402;DHT22;4238;48.404;9.498;2023-09-19T10:03:31;19.90;99.90
8402;DHT22;4238;48.404;9.498;2023-09-19T10:06:00;20.30;99.90
8402;DHT22;4238;48.404;9.498;2023-09-19T10:08:34;20.70;99.90
8402;DHT22;4238;48.404;9.498;2023-09-19T10:11:15;21.20;1.00
8402;DHT22;4238;48.404;9.498;2023-09-19T10:13:44;21.10;1.00
8402;DHT22;4238;48.404;9.498;2023-09-19T10:16:13;20.90;99.90
8402;DHT22;4238;48.404;9.498;2023-09-19T10:18:45;20.60;18.90
8402;DHT22;4238;48.404;9.498;2023-09-19T10:21:15;20.70;99.90
8402;DHT22;4238;48.404;9.498;2023-09-19T10:23:48;20.90;99.90
8402;DHT22;4238;48.404;9.498;2023-09-19T10:26:19;21.40;1.00
8402;DHT22;4238;48.404;9.498;2023-09-19T10:28:50;21.80;99.90
8402;DHT22;4238;48.404;9.498;2023-09-19T10:31:19;22.00;1.00
8402;DHT22;4238;48.404;9.498;2023-09-19T10:33:47;21.90;99.90
8402;DHT22;4238;48.404;9.498;2023-09-19T10:36:16;21.90;99.90
8402;DHT22;4238;48.404;9.498;2023-09-19T10:38:45;22.20;99.90
8402;DHT22;4238;48.404;9.498;2023-09-19T10:41:16;22.60;99.90
8402;DHT22;4238;48.404;9.498;2023-09-19T10:43:48;22.90;99.90
8402;DHT22;4238;48.404;9.498;2023-09-19T10:46:15;23.00;99.90
8402;DHT22;4238;48.404;9.498;2023-09-19T10:48:42;23.20;1.00
8402;DHT22;4238;48.404;9.498;2023-09-19T10:51:12;23.40;99.90
8402;DHT22;4238;48.404;9.498;2023-09-19T10:53:48;23.40;99.90
8402;DHT22;4238;48.404;9.498;2023-09-19T10:56:21;23.40;99.90
8402;DHT22;4238;48.404;9.498;2023-09-19T10:58:51;23.30;28.10
8402;DHT22;4238;48.404;9.498;2023-09-19T11:01:19;23.00;21.00
8402;DHT22;4238;48.404;9.498;2023-09-19T11:03:47;23.00;99.90
8402;DHT22;4238;48.404;9.498;2023-09-19T11:06:16;22.60;99.90
8402;DHT22;4238;48.404;9.498;2023-09-19T11:09:00;22.00;99.90
8402;DHT22;4238;48.404;9.498;2023-09-19T11:11:48;21.50;1.00
8402;DHT22;4238;48.404;9.498;2023-09-19T11:14:37;20.90;23.80
8402;DHT22;4238;48.404;9.498;2023-09-19T11:20:25;20.80;99.90
8402;DHT22;4238;48.404;9.498;2023-09-19T11:23:21;20.90;99.90
8402;DHT22;4238;48.404;9.498;2023-09-19T11:25:56;21.30;99.90
8402;DHT22;4238;48.404;9.498;2023-09-19T11:28:30;21.80;98.50
8402;DHT22;4238;48.404;9.498;2023-09-19T11:30:58;22.20;37.10
8402;DHT22;4238;48.404;9.498;2023-09-19T11:33:26;22.50;1.00
8402;DHT22;4238;48.404;9.498;2023-09-19T11:36:02;22.70;99.90
8402;DHT22;4238;48.404;9.498;2023-09-19T11:38:57;23.00;99.90
8402;DHT22;4238;48.404;9.498;2023-09-19T11:41:39;23.10;75.00
8402;DHT22;4238;48.404;9.498;2023-09-19T11:44:36;23.20;29.90
8402;DHT22;4238;48.404;9.498;2023-09-19T11:47:06;23.40;11.00
8402;DHT22;4238;48.404;9.498;2023-09-19T11:49:34;23.30;1.00
8402;DHT22;4238;48.404;9.498;2023-09-19T11:52:04;23.60;1.00
8402;DHT22;4238;48.404;9.498;2023-09-19T11:54:34;23.90;1.00
8402;DHT22;4238;48.404;9.498;2023-09-19T11:57:05;23.90;1.00
8402;DHT22;4238;48.404;9.498;2023-09-19T11:59:38;23.90;1.00
8402;DHT22;4238;48.404;9.498;2023-09-19T12:02:07;23.90;1.00
8402;DHT22;4238;48.404;9.498;2023-09-19T12:04:37;24.00;1.00
8402;DHT22;4238;48.404;9.498;2023-09-19T12:07:05;24.10;1.00
8402;DHT22;4238;48.404;9.498;2023-09-19T12:09:39;24.20;1.00
8402;DHT22;4238;48.404;9.498;2023-09-19T12:12:10;23.90;99.90
8402;DHT22;4238;48.404;9.498;2023-09-19T12:14:38;23.80;99.90
8402;DHT22;4238;48.404;9.498;2023-09-19T12:17:08;23.60;99.90
8402;DHT22;4238;48.404;9.498;2023-09-19T12:19:35;23.30;99.90
8402;DHT22;4238;48.404;9.498;2023-09-19T12:22:03;23.30;99.90
8402;DHT22;4238;48.404;9.498;2023-09-19T12:24:31;23.00;99.90
8402;DHT22;4238;48.404;9.498;2023-09-19T12:27:02;23.10;99.90
8402;DHT22;4238;48.404;9.498;2023-09-19T12:29:31;23.10;99.90
8402;DHT22;4238;48.404;9.498;2023-09-19T12:32:00;23.30;99.90
8402;DHT22;4238;48.404;9.498;2023-09-19T12:34:31;23.50;99.90
8402;DHT22;4238;48.404;9.498;2023-09-19T12:37:04;23.50;99.90
8402;DHT22;4238;48.404;9.498;2023-09-19T12:39:37;23.90;99.90
8402;DHT22;4238;48.404;9.498;2023-09-19T12:42:04;24.10;99.90
8402;DHT22;4238;48.404;9.498;2023-09-19T12:44:35;24.20;99.90
8402;DHT22;4238;48.404;9.498;2023-09-19T12:47:09;24.30;94.60
8402;DHT22;4238;48.404;9.498;2023-09-19T12:50:07;24.30;8.10
8402;DHT22;4238;48.404;9.498;2023-09-19T12:52:39;24.30;3.30
8402;DHT22;4238;48.404;9.498;2023-09-19T12:55:07;24.30;1.00
8402;DHT22;4238;48.404;9.498;2023-09-19T12:57:36;24.20;13.90
8402;DHT22;4238;48.404;9.498;2023-09-19T13:00:06;24.30;1.00
8402;DHT22;4238;48.404;9.498;2023-09-19T13:02:36;24.20;1.00
8402;DHT22;4238;48.404;9.498;2023-09-19T13:05:05;24.10;1.00
8402;DHT22;4238;48.404;9.498;2023-09-19T13:07:43;24.10;1.00
8402;DHT22;4238;48.404;9.498;2023-09-19T13:10:13;23.80;1.00
8402;DHT22;4238;48.404;9.498;2023-09-19T13:12:43;23.80;1.00
8402;DHT22;4238;48.404;9.498;2023-09-19T13:15:14;23.90;1.00
8402;DHT22;4238;48.404;9.498;2023-09-19T13:17:46;23.50;1.00
8402;DHT22;4238;48.404;9.498;2023-09-19T13:20:25;23.50;1.00
8402;DHT22;4238;48.404;9.498;2023-09-19T13:22:54;23.60;1.00
8402;DHT22;4238;48.404;9.498;2023-09-19T13:25:25;23.70;1.00
8402;DHT22;4238;48.404;9.498;2023-09-19T13:27:56;23.60;1.00
8402;DHT22;4238;48.404;9.498;2023-09-19T13:30:24;23.30;1.00
8402;DHT22;4238;48.404;9.498;2023-09-19T13:32:51;23.30;1.00
8402;DHT22;4238;48.404;9.498;2023-09-19T13:35:19;23.50;1.00
8402;DHT22;4238;48.404;9.498;2023-09-19T13:37:48;23.30;1.00
8402;DHT22;4238;48.404;9.498;2023-09-19T13:40:17;23.20;1.00
8402;DHT22;4238;48.404;9.498;2023-09-19T13:42:44;23.20;1.00
8402;DHT22;4238;48.404;9.498;2023-09-19T13:45:11;23.20;1.00
8402;DHT22;4238;48.404;9.498;2023-09-19T13:47:41;23.30;1.00
8402;DHT22;4238;48.404;9.498;2023-09-19T13:50:09;23.20;1.00
8402;DHT22;4238;48.404;9.498;2023-09-19T13:52:36;23.30;1.00
8402;DHT22;4238;48.404;9.498;2023-09-19T13:55:06;23.30;1.00
8402;DHT22;4238;48.404;9.498;2023-09-19T13:57:33;23.20;1.00
8402;DHT22;4238;48.404;9.498;2023-09-19T14:00:00;23.30;1.00
8402;DHT22;4238;48.404;9.498;2023-09-19T14:02:27;23.50;1.00
8402;DHT22;4238;48.404;9.498;2023-09-19T14:04:54;23.50;1.00
8402;DHT22;4238;48.404;9.498;2023-09-19T14:07:20;23.50;1.00
8402;DHT22;4238;48.404;9.498;2023-09-19T14:09:47;23.30;1.00
8402;DHT22;4238;48.404;9.498;2023-09-19T14:12:16;23.20;1.00
8402;DHT22;4238;48.404;9.498;2023-09-19T14:14:42;23.20;1.00
8402;DHT22;4238;48.404;9.498;2023-09-19T14:17:10;23.20;1.00
8402;DHT22;4238;48.404;9.498;2023-09-19T14:19:40;23.10;1.00
8402;DHT22;4238;48.404;9.498;2023-09-19T14:22:09;23.00;1.00
8402;DHT22;4238;48.404;9.498;2023-09-19T14:24:36;23.00;1.00
8402;DHT22;4238;48.404;9.498;2023-09-19T14:27:04;23.00;1.00
8402;DHT22;4238;48.404;9.498;2023-09-19T14:29:33;23.00;1.00
8402;DHT22;4238;48.404;9.498;2023-09-19T14:32:00;22.90;1.00
8402;DHT22;4238;48.404;9.498;2023-09-19T14:34:27;23.00;1.00
8402;DHT22;4238;48.404;9.498;2023-09-19T14:36:54;22.90;1.00
8402;DHT22;4238;48.404;9.498;2023-09-19T14:39:21;22.80;1.00
8402;DHT22;4238;48.404;9.498;2023-09-19T14:41:49;22.80;1.00
8402;DHT22;4238;48.404;9.498;2023-09-19T14:44:16;22.60;1.00
8402;DHT22;4238;48.404;9.498;2023-09-19T14:46:44;22.70;1.00
8402;DHT22;4238;48.404;9.498;2023-09-19T14:49:11;22.80;1.00
8402;DHT22;4238;48.404;9.498;2023-09-19T14:51:38;22.80;1.00
8402;DHT22;4238;48.404;9.498;2023-09-19T14:54:06;22.80;1.00
8402;DHT22;4238;48.404;9.498;2023-09-19T14:56:33;22.90;1.00
8402;DHT22;4238;48.404;9.498;2023-09-19T14:59:00;22.80;1.00
8402;DHT22;4238;48.404;9.498;2023-09-19T15:01:28;22.90;1.00
8402;DHT22;4238;48.404;9.498;2023-09-19T15:03:56;22.80;1.00
8402;DHT22;4238;48.404;9.498;2023-09-19T15:06:23;22.80;1.00
8402;DHT22;4238;48.404;9.498;2023-09-19T15:08:52;22.70;1.00
8402;DHT22;4238;48.404;9.498;2023-09-19T15:11:19;22.60;1.00
8402;DHT22;4238;48.404;9.498;2023-09-19T15:13:47;22.70;1.00
8402;DHT22;4238;48.404;9.498;2023-09-19T15:16:14;22.60;1.00
8402;DHT22;4238;48.404;9.498;2023-09-19T15:18:42;22.50;1.00
8402;DHT22;4238;48.404;9.498;2023-09-19T15:21:13;22.40;1.00
8402;DHT22;4238;48.404;9.498;2023-09-19T15:23:41;22.40;1.00
8402;DHT22;4238;48.404;9.498;2023-09-19T15:26:11;22.30;1.00
8402;DHT22;4238;48.404;9.498;2023-09-19T15:28:39;22.20;1.00
8402;DHT22;4238;48.404;9.498;2023-09-19T15:31:07;22.10;1.00
8402;DHT22;4238;48.404;9.498;2023-09-19T15:33:35;22.00;1.00
8402;DHT22;4238;48.404;9.498;2023-09-19T15:36:03;21.80;76.40
8402;DHT22;4238;48.404;9.498;2023-09-19T15:38:32;21.80;92.40
8402;DHT22;4238;48.404;9.498;2023-09-19T15:41:17;21.70;99.90
8402;DHT22;4238;48.404;9.498;2023-09-19T15:43:44;21.50;99.90
8402;DHT22;4238;48.404;9.498;2023-09-19T15:46:11;21.50;99.90
8402;DHT22;4238;48.404;9.498;2023-09-19T15:48:39;21.40;99.90
8402;DHT22;4238;48.404;9.498;2023-09-19T15:51:06;21.50;99.90
8402;DHT22;4238;48.404;9.498;2023-09-19T15:53:42;21.40;99.90
8402;DHT22;4238;48.404;9.498;2023-09-19T15:56:09;21.40;99.90
8402;DHT22;4238;48.404;9.498;2023-09-19T15:58:37;21.50;99.90
8402;DHT22;4238;48.404;9.498;2023-09-19T16:01:05;21.50;99.90
8402;DHT22;4238;48.404;9.498;2023-09-19T16:03:34;21.50;1.00
8402;DHT22;4238;48.404;9.498;2023-09-19T16:06:01;21.50;99.90
8402;DHT22;4238;48.404;9.498;2023-09-19T16:08:29;21.50;99.90
8402;DHT22;4238;48.404;9.498;2023-09-19T16:10:58;21.40;99.90
8402;DHT22;4238;48.404;9.498;2023-09-19T16:13:24;21.40;1.00
8402;DHT22;4238;48.404;9.498;2023-09-19T16:15:52;21.30;1.00
8402;DHT22;4238;48.404;9.498;2023-09-19T16:18:19;21.30;1.00
8402;DHT22;4238;48.404;9.498;2023-09-19T16:20:46;21.20;1.00
8402;DHT22;4238;48.404;9.498;2023-09-19T16:23:13;21.10;1.00
8402;DHT22;4238;48.404;9.498;2023-09-19T16:25:39;21.00;1.00
8402;DHT22;4238;48.404;9.498;2023-09-19T16:28:08;21.00;1.00
8402;DHT22;4238;48.404;9.498;2023-09-19T16:30:35;20.90;1.00
8402;DHT22;4238;48.404;9.498;2023-09-19T16:33:04;20.80;1.00
8402;DHT22;4238;48.404;9.498;2023-09-19T16:35:36;20.70;99.90
8402;DHT22;4238;48.404;9.498;2023-09-19T16:38:04;20.60;99.90
8402;DHT22;4238;48.404;9.498;2023-09-19T16:40:31;20.50;99.90
8402;DHT22;4238;48.404;9.498;2023-09-19T16:42:58;20.40;1.00
8402;DHT22;4238;48.404;9.498;2023-09-19T16:45:28;20.30;99.90
8402;DHT22;4238;48.404;9.498;2023-09-19T16:47:54;20.20;99.90
8402;DHT22;4238;48.404;9.498;2023-09-19T16:50:21;20.10;99.90
8402;DHT22;4238;48.404;9.498;2023-09-19T16:52:48;20.10;1.00
8402;DHT22;4238;48.404;9.498;2023-09-19T16:55:16;20.20;1.00
8402;DHT22;4238;48.404;9.498;2023-09-19T16:57:46;20.20;1.00
8402;DHT22;4238;48.404;9.498;2023-09-19T17:00:14;20.40;99.90
8402;DHT22;4238;48.404;9.498;2023-09-19T17:02:46;21.00;1.00
8402;DHT22;4238;48.404;9.498;2023-09-19T17:05:13;21.50;1.00
8402;DHT22;4238;48.404;9.498;2023-09-19T17:07:41;22.00;1.00
8402;DHT22;4238;48.404;9.498;2023-09-19T17:10:08;22.40;1.00
8402;DHT22;4238;48.404;9.498;2023-09-19T17:12:35;22.60;57.60
8402;DHT22;4238;48.404;9.498;2023-09-19T17:15:04;23.50;7.40
8402;DHT22;4238;48.404;9.498;2023-09-19T17:17:31;22.90;1.00
8402;DHT22;4238;48.404;9.498;2023-09-19T17:20:01;22.40;1.00
8402;DHT22;4238;48.404;9.498;2023-09-19T17:22:28;22.40;1.00
8402;DHT22;4238;48.404;9.498;2023-09-19T17:24:55;21.80;99.90
8402;DHT22;4238;48.404;9.498;2023-09-19T17:27:22;21.50;21.50
8402;DHT22;4238;48.404;9.498;2023-09-19T17:29:49;21.20;1.00
8402;DHT22;4238;48.404;9.498;2023-09-19T17:32:16;21.00;99.90
8402;DHT22;4238;48.404;9.498;2023-09-19T17:34:46;20.90;1.00
8402;DHT22;4238;48.404;9.498;2023-09-19T17:37:14;20.80;1.00
8402;DHT22;4238;48.404;9.498;2023-09-19T17:39:41;20.70;99.90
8402;DHT22;4238;48.404;9.498;2023-09-19T17:42:08;20.40;1.00
8402;DHT22;4238;48.404;9.498;2023-09-19T17:44:37;20.10;1.00
8402;DHT22;4238;48.404;9.498;2023-09-19T17:47:04;19.90;99.90
8402;DHT22;4238;48.404;9.498;2023-09-19T17:49:31;19.90;1.00
8402;DHT22;4238;48.404;9.498;2023-09-19T17:51:58;19.80;99.90
8402;DHT22;4238;48.404;9.498;2023-09-19T17:54:26;19.50;65.90
8402;DHT22;4238;48.404;9.498;2023-09-19T17:56:53;19.10;99.90
8402;DHT22;4238;48.404;9.498;2023-09-19T17:59:20;18.70;99.90
8402;DHT22;4238;48.404;9.498;2023-09-19T18:01:48;18.20;99.90
8402;DHT22;4238;48.404;9.498;2023-09-19T18:04:16;18.10;1.00
8402;DHT22;4238;48.404;9.498;2023-09-19T18:06:43;18.30;1.00
8402;DHT22;4238;48.404;9.498;2023-09-19T18:09:10;18.40;1.00
8402;DHT22;4238;48.404;9.498;2023-09-19T18:11:41;18.70;1.00
8402;DHT22;4238;48.404;9.498;2023-09-19T18:14:08;19.40;99.90
8402;DHT22;4238;48.404;9.498;2023-09-19T18:16:35;19.40;99.90
8402;DHT22;4238;48.404;9.498;2023-09-19T18:19:03;19.80;99.90
8402;DHT22;4238;48.404;9.498;2023-09-19T18:21:32;19.70;99.90
8402;DHT22;4238;48.404;9.498;2023-09-19T18:23:59;19.80;99.90
8402;DHT22;4238;48.404;9.498;2023-09-19T18:26:29;19.60;99.90
8402;DHT22;4238;48.404;9.498;2023-09-19T18:28:57;19.00;1.00
8402;DHT22;4238;48.404;9.498;2023-09-19T18:31:26;18.80;82.60
8402;DHT22;4238;48.404;9.498;2023-09-19T18:33:54;18.30;99.90
8402;DHT22;4238;48.404;9.498;2023-09-19T18:36:21;17.90;99.90
8402;DHT22;4238;48.404;9.498;2023-09-19T18:38:48;17.80;1.00
8402;DHT22;4238;48.404;9.498;2023-09-19T18:41:16;17.50;99.90
8402;DHT22;4238;48.404;9.498;2023-09-19T18:43:44;17.10;1.00
8402;DHT22;4238;48.404;9.498;2023-09-19T18:46:13;16.80;1.00
8402;DHT22;4238;48.404;9.498;2023-09-19T18:48:41;16.60;1.00
8402;DHT22;4238;48.404;9.498;2023-09-19T18:51:10;16.30;1.00
8402;DHT22;4238;48.404;9.498;2023-09-19T18:53:37;16.00;1.00
8402;DHT22;4238;48.404;9.498;2023-09-19T18:56:05;15.70;1.00
8402;DHT22;4238;48.404;9.498;2023-09-19T18:58:33;15.50;1.00
8402;DHT22;4238;48.404;9.498;2023-09-19T19:01:02;15.20;1.00
8402;DHT22;4238;48.404;9.498;2023-09-19T19:03:30;14.90;1.00
8402;DHT22;4238;48.404;9.498;2023-09-19T19:05:57;14.80;1.00
8402;DHT22;4238;48.404;9.498;2023-09-19T19:08:24;14.60;9.50
8402;DHT22;4238;48.404;9.498;2023-09-19T19:10:51;14.40;22.30
8402;DHT22;4238;48.404;9.498;2023-09-19T19:13:18;14.20;25.90
8402;DHT22;4238;48.404;9.498;2023-09-19T19:15:45;14.10;29.20
8402;DHT22;4238;48.404;9.498;2023-09-19T19:18:11;14.00;31.70
8402;DHT22;4238;48.404;9.498;2023-09-19T19:20:40;13.90;37.80
8402;DHT22;4238;48.404;9.498;2023-09-19T19:23:07;13.80;47.80
8402;DHT22;4238;48.404;9.498;2023-09-19T19:25:36;13.70;55.50
8402;DHT22;4238;48.404;9.498;2023-09-19T19:28:05;13.60;59.10
8402;DHT22;4238;48.404;9.498;2023-09-19T19:30:34;13.50;71.20
8402;DHT22;4238;48.404;9.498;2023-09-19T19:33:02;13.40;77.30
8402;DHT22;4238;48.404;9.498;2023-09-19T19:35:29;13.30;82.30
8402;DHT22;4238;48.404;9.498;2023-09-19T19:37:59;13.20;85.90
8402;DHT22;4238;48.404;9.498;2023-09-19T19:40:26;13.10;81.70
8402;DHT22;4238;48.404;9.498;2023-09-19T19:42:53;13.10;80.20
8402;DHT22;4238;48.404;9.498;2023-09-19T19:45:21;13.00;86.10
8402;DHT22;4238;48.404;9.498;2023-09-19T19:47:49;13.00;88.30
8402;DHT22;4238;48.404;9.498;2023-09-19T19:50:15;12.90;91.50
8402;DHT22;4238;48.404;9.498;2023-09-19T19:52:43;12.80;94.60
8402;DHT22;4238;48.404;9.498;2023-09-19T19:55:11;12.70;94.90
8402;DHT22;4238;48.404;9.498;2023-09-19T19:57:40;12.70;92.00
8402;DHT22;4238;48.404;9.498;2023-09-19T20:00:08;12.70;96.40
8402;DHT22;4238;48.404;9.498;2023-09-19T20:02:36;12.60;96.30
8402;DHT22;4238;48.404;9.498;2023-09-19T20:05:04;12.50;95.60
8402;DHT22;4238;48.404;9.498;2023-09-19T20:07:32;12.40;98.00
8402;DHT22;4238;48.404;9.498;2023-09-19T20:09:59;12.40;99.60
8402;DHT22;4238;48.404;9.498;2023-09-19T20:12:28;12.40;99.90
8402;DHT22;4238;48.404;9.498;2023-09-19T20:14:54;12.40;99.90
8402;DHT22;4238;48.404;9.498;2023-09-19T20:17:22;12.40;99.90
8402;DHT22;4238;48.404;9.498;2023-09-19T20:19:49;12.30;99.90
8402;DHT22;4238;48.404;9.498;2023-09-19T20:22:18;12.20;99.90
8402;DHT22;4238;48.404;9.498;2023-09-19T20:24:45;12.20;99.90